Time;durP1;ratioP1;P1;durP2;ratioP2;P2;SDS_P1;SDS_P2;PMS_P1;PMS_P2;Temp;Humidity;BMP_temperature;BMP_pressure;BME280_temperature;BME280_humidity;BME280_pressure;Samples;Min_cycle;Max_cycle;Signal;HPM_P1;HPM_P2
2023/04/11 00:00:09;;;;;;;55.58;30.88;;;;;;;;;;6064878;23;20055;-77
2023/04/11 00:02:38;;;;;;;50.47;31.35;;;;;;;;;;6064012;23;20376;-78
2023/04/11 00:05:05;;;;;;;54.95;27.10;;;;;;;;;;6063536;23;20043;-78
2023/04/11 00:07:31;;;;;;;43.42;22.73;;;;;;;;;;6065232;23;20089;-78
2023/04/11 00:09:57;;;;;;;34.35;21.02;;;;;;;;;;6064923;23;20022;-77
2023/04/11 00:12:23;;;;;;;33.10;20.75;;;;;;;;;;6065585;23;20042;-77
2023/04/11 00:14:52;;;;;;;38.83;22.67;;;;;;;;;;6063829;23;20019;-77
2023/04/11 00:17:18;;;;;;;42.20;26.73;;;;;;;;;;6065859;23;20022;-77
2023/04/11 00:19:45;;;;;;;44.05;27.05;;;;;;;;;;6017148;23;20042;-78
2023/04/11 00:22:12;;;;;;;48.28;25.98;;;;;;;;;;6076204;23;20019;-78
2023/04/11 00:24:38;;;;;;;47.13;26.67;;;;;;;;;;6093525;23;20019;-78
2023/04/11 00:27:05;;;;;;;41.58;25.30;;;;;;;;;;6119209;23;20015;-77
2023/04/11 00:29:32;;;;;;;41.22;26.85;;;;;;;;;;6118898;23;20033;-77
2023/04/11 00:31:59;;;;;;;42.47;25.38;;;;;;;;;;6069013;23;20034;-78
2023/04/11 00:34:26;;;;;;;47.35;29.75;;;;;;;;;;6066595;23;20099;-78
2023/04/11 00:36:52;;;;;;;48.60;28.60;;;;;;;;;;6096753;23;20011;-78
2023/04/11 00:39:19;;;;;;;50.35;27.65;;;;;;;;;;6095182;23;20010;-82
2023/04/11 00:41:45;;;;;;;53.22;29.63;;;;;;;;;;6073915;23;20459;-80
2023/04/11 00:44:12;;;;;;;55.13;28.25;;;;;;;;;;6073372;23;20093;-79
2023/04/11 00:46:40;;;;;;;58.78;28.15;;;;;;;;;;6051379;23;20018;-80
2023/04/11 00:49:06;;;;;;;55.08;28.75;;;;;;;;;;6102217;23;20018;-78
2023/04/11 00:51:32;;;;;;;51.33;28.85;;;;;;;;;;6106302;23;20041;-79
2023/04/11 00:54:00;;;;;;;50.22;28.92;;;;;;;;;;6076123;23;20098;-79
2023/04/11 00:56:26;;;;;;;41.67;24.90;;;;;;;;;;6072794;23;20038;-79
2023/04/11 00:58:52;;;;;;;35.75;23.92;;;;;;;;;;6097296;23;20018;-79
2023/04/11 01:01:18;;;;;;;50.78;29.08;;;;;;;;;;6098584;23;20014;-79
2023/04/11 01:03:44;;;;;;;47.40;27.48;;;;;;;;;;6075675;23;20395;-78
2023/04/11 01:06:11;;;;;;;50.72;28.25;;;;;;;;;;6102173;23;20026;-78
2023/04/11 01:08:37;;;;;;;47.78;27.92;;;;;;;;;;6070865;23;20019;-79
2023/04/11 01:11:04;;;;;;;43.95;26.73;;;;;;;;;;6046544;23;20073;-78
2023/04/11 01:13:30;;;;;;;46.20;27.05;;;;;;;;;;6071316;23;20099;-78
2023/04/11 01:15:56;;;;;;;43.60;26.90;;;;;;;;;;6070397;23;20479;-78
2023/04/11 01:18:22;;;;;;;58.00;29.70;;;;;;;;;;6095613;23;20038;-80
2023/04/11 01:20:48;;;;;;;42.78;27.50;;;;;;;;;;6046487;23;20022;-79
2023/04/11 01:23:18;;;;;;;52.25;30.02;;;;;;;;;;6095036;23;20526;-79
2023/04/11 01:25:44;;;;;;;52.78;30.00;;;;;;;;;;6068890;23;20014;-79
2023/04/11 01:28:10;;;;;;;46.55;30.13;;;;;;;;;;6095066;23;20022;-79
2023/04/11 01:30:36;;;;;;;41.35;28.70;;;;;;;;;;6021183;23;20026;-80
2023/04/11 01:33:02;;;;;;;56.67;29.50;;;;;;;;;;6094425;23;20163;-80
2023/04/11 01:35:28;;;;;;;54.08;31.30;;;;;;;;;;6046045;23;20018;-79
2023/04/11 01:37:54;;;;;;;54.30;34.22;;;;;;;;;;6095503;23;20017;-79
2023/04/11 01:40:22;;;;;;;54.53;32.15;;;;;;;;;;6094844;23;20014;-79
2023/04/11 01:42:49;;;;;;;62.03;32.70;;;;;;;;;;6070234;23;20011;-79
2023/04/11 01:45:15;;;;;;;55.05;31.33;;;;;;;;;;6095872;23;20541;-79
2023/04/11 01:47:41;;;;;;;51.55;31.70;;;;;;;;;;6050977;23;20052;-79
2023/04/11 01:50:07;;;;;;;55.47;32.97;;;;;;;;;;6074872;23;20029;-79
2023/04/11 01:52:33;;;;;;;48.10;28.92;;;;;;;;;;6079661;23;20014;-82
2023/04/11 01:54:59;;;;;;;45.90;29.25;;;;;;;;;;6053992;23;20018;-82
2023/04/11 01:57:26;;;;;;;57.38;30.92;;;;;;;;;;6054421;23;20022;-81
2023/04/11 01:59:52;;;;;;;55.80;33.47;;;;;;;;;;6077138;23;20356;-80
2023/04/11 02:02:17;;;;;;;60.80;32.30;;;;;;;;;;6050886;23;20360;-81
2023/04/11 02:04:44;;;;;;;52.40;33.03;;;;;;;;;;6069975;23;20018;-79
2023/04/11 02:07:13;;;;;;;62.25;32.95;;;;;;;;;;6095036;23;20391;-80
2023/04/11 02:09:39;;;;;;;57.65;35.33;;;;;;;;;;6094968;23;20018;-80
2023/04/11 02:12:07;;;;;;;65.28;34.10;;;;;;;;;;6094519;23;20093;-78
2023/04/11 02:14:40;;;;;;;62.80;34.75;;;;;;;;;;6069064;23;20019;-80
2023/04/11 02:17:08;;;;;;;62.55;35.42;;;;;;;;;;6094402;23;20068;-79
2023/04/11 02:19:35;;;;;;;70.13;39.92;;;;;;;;;;6069501;23;20049;-79
2023/04/11 02:22:01;;;;;;;62.47;36.90;;;;;;;;;;6094565;23;20111;-79
2023/04/11 02:24:27;;;;;;;60.72;35.58;;;;;;;;;;6069143;23;20514;-78
2023/04/11 02:26:55;;;;;;;63.95;37.35;;;;;;;;;;6094490;23;20046;-81
2023/04/11 02:29:22;;;;;;;68.25;37.25;;;;;;;;;;6068547;23;20407;-81
2023/04/11 02:31:48;;;;;;;55.95;34.20;;;;;;;;;;6097051;23;20097;-80
2023/04/11 02:34:16;;;;;;;50.75;31.08;;;;;;;;;;6095503;23;20021;-81
2023/04/11 02:36:42;;;;;;;53.92;32.20;;;;;;;;;;6067418;23;20018;-80
2023/04/11 02:39:08;;;;;;;51.45;32.05;;;;;;;;;;6068272;23;20015;-80
2023/04/11 02:41:37;;;;;;;56.40;31.02;;;;;;;;;;6094651;23;20041;-79
2023/04/11 02:44:03;;;;;;;56.80;32.08;;;;;;;;;;6094028;23;20033;-79
2023/04/11 02:46:29;;;;;;;62.70;33.80;;;;;;;;;;6094307;23;20602;-78
2023/04/11 02:48:55;;;;;;;50.83;29.65;;;;;;;;;;6094326;23;20014;-79
2023/04/11 02:51:21;;;;;;;61.33;33.97;;;;;;;;;;6067871;23;20092;-80
2023/04/11 02:53:47;;;;;;;57.80;31.55;;;;;;;;;;6068976;23;20010;-78
2023/04/11 02:56:20;;;;;;;55.65;32.90;;;;;;;;;;6069406;23;20105;-80
2023/04/11 02:58:51;;;;;;;67.30;34.97;;;;;;;;;;6068531;23;20021;-79
2023/04/11 03:01:21;;;;;;;64.90;36.83;;;;;;;;;;6068720;23;20499;-79
2023/04/11 03:03:48;;;;;;;70.07;39.45;;;;;;;;;;6092880;23;20406;-79
2023/04/11 03:06:15;;;;;;;75.82;35.50;;;;;;;;;;6043632;23;20049;-79
2023/04/11 03:08:42;;;;;;;62.53;34.85;;;;;;;;;;6069506;23;20014;-81
2023/04/11 03:11:08;;;;;;;77.22;34.92;;;;;;;;;;6093920;23;20185;-80
2023/04/11 03:13:38;;;;;;;68.07;35.25;;;;;;;;;;6069203;23;20061;-80
2023/04/11 03:16:05;;;;;;;61.78;31.63;;;;;;;;;;6093918;23;20014;-81
2023/04/11 03:18:32;;;;;;;49.72;26.48;;;;;;;;;;6068163;23;20021;-80
2023/04/11 03:21:02;;;;;;;54.60;28.63;;;;;;;;;;5999704;23;20018;-80
2023/04/11 03:23:30;;;;;;;62.83;32.58;;;;;;;;;;6063613;23;20023;-79
2023/04/11 03:25:57;;;;;;;61.25;30.40;;;;;;;;;;6064774;23;20154;-79
2023/04/11 03:28:23;;;;;;;58.13;32.83;;;;;;;;;;6062756;23;20507;-79
2023/04/11 03:30:49;;;;;;;69.50;34.28;;;;;;;;;;6039258;23;20487;-79
2023/04/11 03:33:20;;;;;;;59.17;30.10;;;;;;;;;;6062630;23;20026;-80
2023/04/11 03:35:46;;;;;;;69.93;33.70;;;;;;;;;;6064618;23;20018;-80
2023/04/11 03:38:12;;;;;;;71.75;30.10;;;;;;;;;;6062051;23;20050;-81
2023/04/11 03:40:38;;;;;;;65.72;28.92;;;;;;;;;;6063683;23;20025;-79
2023/04/11 03:43:09;;;;;;;61.63;30.95;;;;;;;;;;6061485;23;20186;-78
2023/04/11 03:45:36;;;;;;;66.10;32.47;;;;;;;;;;6063294;23;20077;-80
2023/04/11 03:48:05;;;;;;;60.13;32.55;;;;;;;;;;6062832;23;20115;-81
2023/04/11 03:50:51;;;;;;;67.78;33.15;;;;;;;;;;6063444;23;20413;-80
2023/04/11 03:53:22;;;;;;;66.38;33.10;;;;;;;;;;6063571;23;20415;-79
2023/04/11 03:55:52;;;;;;;62.50;30.73;;;;;;;;;;6063663;23;20070;-79
2023/04/11 03:58:21;;;;;;;59.83;32.47;;;;;;;;;;6035050;23;20019;-79
2023/04/11 04:00:48;;;;;;;64.90;33.30;;;;;;;;;;6062805;23;20019;-78
2023/04/11 04:03:14;;;;;;;62.15;32.78;;;;;;;;;;6039539;23;20011;-79
2023/04/11 04:05:41;;;;;;;58.92;31.55;;;;;;;;;;6062977;23;20023;-76
2023/04/11 04:08:07;;;;;;;47.13;30.23;;;;;;;;;;6039237;23;20027;-74
2023/04/11 04:10:41;;;;;;;45.90;29.20;;;;;;;;;;6062867;23;20479;-77
2023/04/11 04:13:08;;;;;;;59.83;32.33;;;;;;;;;;6063157;23;20021;-78
2023/04/11 04:15:38;;;;;;;53.75;31.08;;;;;;;;;;6063477;23;20034;-80
2023/04/11 04:18:05;;;;;;;55.00;30.55;;;;;;;;;;6039422;23;20015;-80
2023/04/11 04:20:41;;;;;;;76.38;39.85;;;;;;;;;;6032242;23;20022;-78
2023/04/11 04:23:07;;;;;;;76.35;34.42;;;;;;;;;;6065100;23;20026;-77
2023/04/11 04:25:51;;;;;;;54.70;27.42;;;;;;;;;;6067212;23;20014;-78
2023/04/11 04:28:22;;;;;;;67.60;32.15;;;;;;;;;;6068482;23;20018;-79
2023/04/11 04:30:53;;;;;;;69.00;33.15;;;;;;;;;;6067159;23;20503;-78
2023/04/11 04:33:20;;;;;;;54.03;31.05;;;;;;;;;;6042872;23;20014;-76
2023/04/11 04:35:56;;;;;;;58.03;28.98;;;;;;;;;;6091140;23;20056;-78
2023/04/11 04:38:27;;;;;;;63.05;30.15;;;;;;;;;;6046060;23;20475;-80
2023/04/11 04:40:56;;;;;;;56.08;31.30;;;;;;;;;;6067353;23;20014;-81
2023/04/11 04:43:26;;;;;;;70.80;33.95;;;;;;;;;;6067731;23;20021;-81
2023/04/11 04:45:58;;;;;;;73.30;33.78;;;;;;;;;;6069531;23;20040;-81
2023/04/11 04:48:34;;;;;;;53.20;28.98;;;;;;;;;;6069933;23;20010;-78
2023/04/11 04:51:02;;;;;;;53.90;27.85;;;;;;;;;;6067518;23;20050;-79
2023/04/11 04:53:28;;;;;;;47.13;27.08;;;;;;;;;;6071060;23;20021;-78
2023/04/11 04:55:57;;;;;;;39.35;26.13;;;;;;;;;;6075261;23;20015;-80
2023/04/11 04:58:26;;;;;;;50.13;27.95;;;;;;;;;;6076439;23;20069;-80
2023/04/11 05:00:56;;;;;;;46.10;26.48;;;;;;;;;;6082989;23;20037;-80
2023/04/11 05:03:26;;;;;;;49.90;27.70;;;;;;;;;;6106546;23;20084;-80
2023/04/11 05:05:52;;;;;;;58.10;28.80;;;;;;;;;;6098171;23;20111;-79
2023/04/11 05:08:21;;;;;;;48.72;28.75;;;;;;;;;;6069746;23;20402;-79
2023/04/11 05:10:49;;;;;;;;;;;;;;;;;;6094590;23;20022;-79
2023/04/11 05:13:15;;;;;;;51.55;28.33;;;;;;;;;;6093599;23;19943;-80
2023/04/11 05:15:48;;;;;;;46.67;26.75;;;;;;;;;;6068160;23;20052;-80
2023/04/11 05:18:14;;;;;;;59.08;29.17;;;;;;;;;;6067518;23;20481;-80
2023/04/11 05:20:41;;;;;;;46.50;27.58;;;;;;;;;;6068000;23;20034;-80
2023/04/11 05:23:10;;;;;;;48.88;28.55;;;;;;;;;;6044601;23;20097;-80
2023/04/11 05:25:36;;;;;;;48.53;29.70;;;;;;;;;;6070541;23;20498;-80
2023/04/11 05:28:04;;;;;;;52.58;28.80;;;;;;;;;;6069939;23;20354;-79
2023/04/11 05:30:30;;;;;;;50.35;27.90;;;;;;;;;;6069814;23;20109;-80
2023/04/11 05:32:57;;;;;;;57.53;29.48;;;;;;;;;;6098959;23;20593;-80
2023/04/11 05:35:23;;;;;;;46.90;27.83;;;;;;;;;;6069390;23;20070;-80
2023/04/11 05:37:52;;;;;;;48.33;27.20;;;;;;;;;;6023201;23;20010;-80
2023/04/11 05:40:18;;;;;;;44.97;28.00;;;;;;;;;;6069276;23;20014;-72
2023/04/11 05:42:44;;;;;;;45.60;27.88;;;;;;;;;;6094951;23;20042;-72
2023/04/11 05:45:10;;;;;;;47.00;29.33;;;;;;;;;;6069020;23;20395;-72
2023/04/11 05:47:36;;;;;;;42.58;24.90;;;;;;;;;;6069535;23;20101;-72
2023/04/11 05:50:02;;;;;;;41.30;24.92;;;;;;;;;;6094640;23;20022;-73
2023/04/11 05:52:29;;;;;;;41.95;24.02;;;;;;;;;;6069014;23;20014;-72
2023/04/11 05:54:55;;;;;;;38.90;25.75;;;;;;;;;;6090408;23;20018;-73
2023/04/11 05:57:22;;;;;;;35.25;27.10;;;;;;;;;;6091538;23;20022;-71
2023/04/11 05:59:48;;;;;;;39.90;23.70;;;;;;;;;;6093642;23;20018;-72
2023/04/11 06:02:15;;;;;;;34.58;23.20;;;;;;;;;;6093572;23;20021;-73
2023/04/11 06:04:41;;;;;;;40.08;24.48;;;;;;;;;;6068401;23;20049;-73
2023/04/11 06:07:07;;;;;;;26.95;20.98;;;;;;;;;;6093855;23;20075;-73
2023/04/11 06:09:34;;;;;;;43.80;26.65;;;;;;;;;;6093532;23;20121;-74
2023/04/11 06:12:00;;;;;;;43.22;24.63;;;;;;;;;;6068071;23;20367;-73
2023/04/11 06:14:26;;;;;;;43.83;24.27;;;;;;;;;;6093606;23;20375;-73
2023/04/11 06:16:52;;;;;;;38.13;23.88;;;;;;;;;;6093607;23;20014;-73
2023/04/11 06:19:18;;;;;;;35.42;20.58;;;;;;;;;;6093634;23;20022;-73
2023/04/11 06:21:44;;;;;;;34.22;19.80;;;;;;;;;;6093483;23;20070;-73
2023/04/11 06:24:10;;;;;;;34.85;20.33;;;;;;;;;;6093540;23;20050;-73
2023/04/11 06:26:35;;;;;;;25.80;19.60;;;;;;;;;;6093542;23;20021;-72
2023/04/11 06:29:05;;;;;;;39.22;26.65;;;;;;;;;;6093288;23;20018;-71
2023/04/11 06:31:31;;;;;;;19.02;14.68;;;;;;;;;;6093172;23;20073;-71
2023/04/11 06:33:57;;;;;;;24.38;18.02;;;;;;;;;;6093538;23;20018;-71
2023/04/11 06:36:23;;;;;;;19.50;17.15;;;;;;;;;;6092951;23;20018;-71
2023/04/11 06:38:49;;;;;;;30.60;18.02;;;;;;;;;;6093481;23;20036;-70
2023/04/11 06:41:15;;;;;;;24.70;18.95;;;;;;;;;;6068388;23;20036;-72
2023/04/11 06:43:41;;;;;;;27.48;18.13;;;;;;;;;;6068597;23;20029;-71
2023/04/11 06:46:07;;;;;;;24.27;17.02;;;;;;;;;;6093346;23;20011;-72
2023/04/11 06:48:33;;;;;;;23.25;15.63;;;;;;;;;;6093411;23;20010;-72
2023/04/11 06:50:59;;;;;;;15.65;10.23;;;;;;;;;;6068295;23;20030;-72
2023/04/11 06:53:25;;;;;;;21.05;16.23;;;;;;;;;;6092728;23;20363;-73
2023/04/11 06:55:51;;;;;;;26.65;16.92;;;;;;;;;;6105144;23;20014;-72
2023/04/11 06:58:16;;;;;;;18.60;14.52;;;;;;;;;;6080733;23;20045;-72
2023/04/11 07:00:42;;;;;;;23.65;13.48;;;;;;;;;;6105533;23;20014;-72
2023/04/11 07:03:08;;;;;;;17.08;15.27;;;;;;;;;;6076445;23;20388;-72
2023/04/11 07:05:34;;;;;;;21.80;15.68;;;;;;;;;;6092563;23;20100;-71
2023/04/11 07:08:00;;;;;;;25.10;16.50;;;;;;;;;;6092289;23;20020;-72
2023/04/11 07:10:29;;;;;;;22.20;16.33;;;;;;;;;;6092268;23;20026;-72
2023/04/11 07:12:55;;;;;;;16.20;14.55;;;;;;;;;;6093073;23;20022;-73
2023/04/11 07:15:22;;;;;;;16.20;12.68;;;;;;;;;;6067300;23;20022;-73
2023/04/11 07:17:48;;;;;;;16.10;12.93;;;;;;;;;;6093487;23;20018;-72
2023/04/11 07:20:15;;;;;;;17.88;12.38;;;;;;;;;;6092776;23;20038;-72
2023/04/11 07:22:42;;;;;;;16.08;12.77;;;;;;;;;;6093073;23;20023;-72
2023/04/11 07:25:08;;;;;;;23.77;17.02;;;;;;;;;;6093268;23;20034;-73
2023/04/11 07:27:35;;;;;;;25.00;14.93;;;;;;;;;;6093098;23;20022;-72
2023/04/11 07:30:01;;;;;;;28.98;17.50;;;;;;;;;;6093417;23;20022;-73
2023/04/11 07:32:29;;;;;;;23.38;19.15;;;;;;;;;;6092884;23;20367;-73
2023/04/11 07:34:55;;;;;;;25.52;17.48;;;;;;;;;;6092837;23;20129;-73
2023/04/11 07:37:21;;;;;;;25.10;16.77;;;;;;;;;;6092654;23;20077;-73
2023/04/11 07:39:47;;;;;;;32.00;21.05;;;;;;;;;;6067073;23;20337;-74
2023/04/11 07:42:13;;;;;;;33.92;21.73;;;;;;;;;;6092627;23;20360;-74
2023/04/11 07:44:39;;;;;;;27.80;20.35;;;;;;;;;;6067559;23;20042;-74
2023/04/11 07:47:08;;;;;;;32.58;20.48;;;;;;;;;;6092675;23;20455;-73
2023/04/11 07:49:34;;;;;;;30.65;18.92;;;;;;;;;;6067321;23;20022;-73
2023/04/11 07:52:00;;;;;;;24.60;18.13;;;;;;;;;;6093083;23;20069;-73
2023/04/11 07:54:29;;;;;;;29.77;17.58;;;;;;;;;;6092823;23;20066;-73
2023/04/11 07:56:55;;;;;;;24.83;16.73;;;;;;;;;;6092903;23;20356;-73
2023/04/11 07:59:22;;;;;;;21.65;16.80;;;;;;;;;;6092930;23;20057;-73
2023/04/11 08:01:48;;;;;;;27.75;17.27;;;;;;;;;;6067843;23;20021;-73
2023/04/11 08:04:13;;;;;;;19.00;14.65;;;;;;;;;;6093049;23;20014;-73
2023/04/11 08:06:39;;;;;;;17.10;14.98;;;;;;;;;;6080308;23;20010;-73
2023/04/11 08:09:05;;;;;;;16.55;13.60;;;;;;;;;;6087438;23;20018;-75
2023/04/11 08:11:31;;;;;;;19.95;13.85;;;;;;;;;;6086702;23;20022;-73
2023/04/11 08:13:57;;;;;;;13.02;11.80;;;;;;;;;;6086608;23;20011;-74
2023/04/11 08:16:23;;;;;;;18.42;13.23;;;;;;;;;;6112972;23;20019;-74
2023/04/11 08:18:49;;;;;;;13.35;11.93;;;;;;;;;;6106923;23;20010;-73
2023/04/11 08:21:15;;;;;;;13.38;12.05;;;;;;;;;;6067493;23;20053;-74
2023/04/11 08:23:41;;;;;;;12.45;11.43;;;;;;;;;;6092281;23;20069;-74
2023/04/11 08:26:08;;;;;;;12.98;10.63;;;;;;;;;;6094588;23;20050;-74
2023/04/11 08:28:34;;;;;;;11.70;10.60;;;;;;;;;;6094524;23;20007;-75
2023/04/11 08:31:01;;;;;;;10.75;9.65;;;;;;;;;;6069570;23;20026;-74
2023/04/11 08:33:27;;;;;;;12.38;10.23;;;;;;;;;;6068645;23;20062;-73
2023/04/11 08:35:53;;;;;;;13.05;10.20;;;;;;;;;;6073732;23;20412;-73
2023/04/11 08:38:19;;;;;;;11.90;9.38;;;;;;;;;;6099025;23;20038;-74
2023/04/11 08:40:45;;;;;;;11.82;9.60;;;;;;;;;;6096214;23;20018;-73
2023/04/11 08:43:11;;;;;;;13.13;9.98;;;;;;;;;;6093953;23;20049;-74
2023/04/11 08:45:38;;;;;;;11.38;10.32;;;;;;;;;;6093296;23;20015;-74
2023/04/11 08:48:05;;;;;;;18.52;10.15;;;;;;;;;;6068759;23;20065;-74
2023/04/11 08:50:32;;;;;;;15.25;11.45;;;;;;;;;;6092326;23;20378;-72
2023/04/11 08:53:01;;;;;;;17.08;10.60;;;;;;;;;;6092704;23;20010;-73
2023/04/11 08:55:27;;;;;;;9.53;8.63;;;;;;;;;;6092103;23;20040;-73
2023/04/11 08:57:57;;;;;;;11.40;10.25;;;;;;;;;;6043224;23;20006;-74
2023/04/11 09:00:24;;;;;;;26.30;19.20;;;;;;;;;;6066750;23;20018;-74
2023/04/11 09:03:06;;;;;;;12.30;10.48;;;;;;;;;;6066356;23;20079;-74
2023/04/11 09:05:32;;;;;;;14.90;10.57;;;;;;;;;;6092201;23;20022;-73
2023/04/11 09:07:59;;;;;;;10.43;9.52;;;;;;;;;;6092424;23;20014;-73
2023/04/11 09:10:26;;;;;;;11.82;10.73;;;;;;;;;;6092128;23;20598;-72
2023/04/11 09:12:53;;;;;;;11.57;10.38;;;;;;;;;;6091775;23;20300;-72
2023/04/11 09:15:20;;;;;;;11.63;10.52;;;;;;;;;;6091310;23;20035;-73
2023/04/11 09:17:45;;;;;;;11.20;9.48;;;;;;;;;;6092148;23;20052;-72
2023/04/11 09:20:19;;;;;;;11.40;10.30;;;;;;;;;;6092177;23;20101;-73
2023/04/11 09:22:45;;;;;;;12.57;11.10;;;;;;;;;;6091949;23;20023;-72
2023/04/11 09:25:11;;;;;;;13.25;10.38;;;;;;;;;;6067632;23;20368;-75
2023/04/11 09:27:39;;;;;;;13.77;10.02;;;;;;;;;;6092191;23;20018;-75
2023/04/11 09:30:16;;;;;;;12.45;11.45;;;;;;;;;;6068211;23;20026;-74
2023/04/11 09:32:42;;;;;;;13.13;11.73;;;;;;;;;;6069479;23;20363;-75
2023/04/11 09:35:08;;;;;;;11.80;10.65;;;;;;;;;;6094377;23;20018;-75
2023/04/11 09:37:42;;;;;;;11.05;10.00;;;;;;;;;;6093985;23;20458;-75
2023/04/11 09:40:10;;;;;;;11.93;10.80;;;;;;;;;;6069036;23;20022;-76
2023/04/11 09:42:36;;;;;;;12.30;10.90;;;;;;;;;;6069091;23;20363;-77
2023/04/11 09:45:02;;;;;;;12.57;11.38;;;;;;;;;;6067251;23;20097;-76
2023/04/11 09:47:32;;;;;;;13.48;9.90;;;;;;;;;;6044232;23;20076;-76
2023/04/11 09:49:58;;;;;;;12.38;10.25;;;;;;;;;;6068913;23;20026;-76
2023/04/11 09:52:29;;;;;;;12.93;10.60;;;;;;;;;;6092899;23;20010;-76
2023/04/11 09:54:55;;;;;;;12.68;10.82;;;;;;;;;;6094102;23;20356;-76
2023/04/11 09:57:21;;;;;;;15.73;10.65;;;;;;;;;;6093369;23;20478;-76
2023/04/11 09:59:47;;;;;;;10.95;9.63;;;;;;;;;;6067903;23;20038;-76
2023/04/11 10:02:16;;;;;;;9.57;8.38;;;;;;;;;;6093634;23;20014;-76
2023/04/11 10:04:43;;;;;;;13.98;11.77;;;;;;;;;;6093439;23;20018;-76
2023/04/11 10:07:13;;;;;;;12.63;11.40;;;;;;;;;;6093481;23;20014;-75
2023/04/11 10:09:40;;;;;;;12.88;10.82;;;;;;;;;;6092858;23;20116;-77
2023/04/11 10:12:06;;;;;;;15.25;10.45;;;;;;;;;;6043644;23;20068;-76
2023/04/11 10:14:38;;;;;;;11.23;10.05;;;;;;;;;;6093536;23;20093;-76
2023/04/11 10:17:13;;;;;;;15.43;10.55;;;;;;;;;;6094002;23;20093;-78
2023/04/11 10:19:39;;;;;;;9.45;8.48;;;;;;;;;;6093729;23;20526;-78
2023/04/11 10:22:05;;;;;;;14.35;10.10;;;;;;;;;;6093654;23;20060;-77
2023/04/11 10:24:31;;;;;;;19.17;9.70;;;;;;;;;;6068251;23;20028;-79
2023/04/11 10:27:03;;;;;;;9.82;8.93;;;;;;;;;;6093588;23;20483;-78
2023/04/11 10:32:09;;;;;;;18.77;10.82;;;;;;;;;;6067063;23;20025;-79
2023/04/11 10:34:37;;;;;;;10.40;9.50;;;;;;;;;;6043276;23;20040;-78
2023/04/11 10:37:07;;;;;;;11.25;9.98;;;;;;;;;;6092948;23;20384;-79
2023/04/11 10:39:52;;;;;;;19.27;10.77;;;;;;;;;;6092709;23;20026;-78
2023/04/11 10:42:27;;;;;;;13.60;11.18;;;;;;;;;;6093402;23;20017;-79
2023/04/11 10:45:12;;;;;;;10.23;8.98;;;;;;;;;;6093531;23;20472;-79
2023/04/11 10:47:38;;;;;;;11.52;10.07;;;;;;;;;;6066274;23;20058;-78
2023/04/11 10:50:23;;;;;;;11.30;10.18;;;;;;;;;;6093584;23;20022;-79
2023/04/11 10:52:49;;;;;;;11.90;10.68;;;;;;;;;;6068712;23;20025;-79
2023/04/11 10:55:18;;;;;;;12.55;9.75;;;;;;;;;;6094042;23;20010;-78
2023/04/11 10:58:06;;;;;;;17.73;10.60;;;;;;;;;;6044390;23;20022;-78
2023/04/11 11:00:52;;;;;;;12.05;10.40;;;;;;;;;;6067340;23;20038;-79
2023/04/11 11:03:19;;;;;;;11.02;9.93;;;;;;;;;;6068214;23;20041;-77
2023/04/11 11:06:06;;;;;;;10.88;9.18;;;;;;;;;;6043697;23;20037;-78
2023/04/11 11:08:32;;;;;;;10.77;9.77;;;;;;;;;;6067517;23;20018;-77
2023/04/11 11:11:02;;;;;;;9.85;8.93;;;;;;;;;;6093302;23;20022;-78
2023/04/11 11:13:47;;;;;;;20.30;10.13;;;;;;;;;;6093127;23;20359;-77
2023/04/11 11:16:14;;;;;;;15.32;8.98;;;;;;;;;;6093136;23;20018;-77
2023/04/11 11:18:43;;;;;;;9.70;8.75;;;;;;;;;;6091804;23;20105;-77
2023/04/11 11:21:09;;;;;;;10.02;9.13;;;;;;;;;;6020088;23;20014;-76
2023/04/11 11:23:35;;;;;;;9.32;8.45;;;;;;;;;;6092832;23;20022;-76
2023/04/11 11:26:01;;;;;;;12.57;9.10;;;;;;;;;;6092779;23;20022;-78
2023/04/11 11:28:27;;;;;;;11.50;8.52;;;;;;;;;;6092881;23;20018;-78
2023/04/11 11:30:54;;;;;;;10.13;9.10;;;;;;;;;;6043573;23;20084;-77
2023/04/11 11:33:21;;;;;;;14.85;8.82;;;;;;;;;;6066609;23;20011;-78
2023/04/11 11:35:54;;;;;;;10.55;9.18;;;;;;;;;;6092334;23;20041;-75
2023/04/11 11:38:21;;;;;;;10.27;9.38;;;;;;;;;;6067652;23;20010;-77
2023/04/11 11:40:47;;;;;;;10.13;8.90;;;;;;;;;;6067482;23;20021;-78
2023/04/11 11:43:14;;;;;;;12.55;8.48;;;;;;;;;;6092985;23;20066;-76
2023/04/11 11:45:41;;;;;;;9.05;8.25;;;;;;;;;;6067345;23;20014;-77
2023/04/11 11:48:07;;;;;;;9.30;8.32;;;;;;;;;;6093432;23;20010;-76
2023/04/11 11:50:33;;;;;;;9.57;8.70;;;;;;;;;;6092892;23;20033;-76
2023/04/11 11:53:19;;;;;;;9.57;8.20;;;;;;;;;;6092743;23;20038;-76
2023/04/11 11:55:45;;;;;;;9.82;8.48;;;;;;;;;;6067209;23;20021;-77
2023/04/11 11:58:11;;;;;;;10.70;8.27;;;;;;;;;;6069003;23;20022;-76
2023/04/11 12:00:37;;;;;;;9.13;7.90;;;;;;;;;;6096504;23;20051;-77
2023/04/11 12:03:03;;;;;;;9.80;8.00;;;;;;;;;;6103053;23;20042;-77
2023/04/11 12:05:30;;;;;;;14.07;7.97;;;;;;;;;;6081591;23;20022;-77
2023/04/11 12:07:58;;;;;;;9.00;7.80;;;;;;;;;;6103990;23;20023;-76
2023/04/11 12:10:25;;;;;;;8.88;8.00;;;;;;;;;;6093408;23;20026;-77
2023/04/11 12:12:52;;;;;;;10.85;8.13;;;;;;;;;;6043686;23;20019;-77
2023/04/11 12:15:18;;;;;;;8.20;7.57;;;;;;;;;;6092693;23;20451;-77
2023/04/11 12:17:50;;;;;;;8.85;7.80;;;;;;;;;;6092697;23;20034;-76
2023/04/11 12:20:16;;;;;;;12.30;7.95;;;;;;;;;;6066985;23;20021;-77
2023/04/11 12:22:43;;;;;;;10.60;7.22;;;;;;;;;;6091640;23;20112;-76
2023/04/11 12:25:13;;;;;;;9.10;7.88;;;;;;;;;;6042748;23;20018;-77
2023/04/11 12:27:40;;;;;;;8.18;7.35;;;;;;;;;;6091555;23;20017;-77
2023/04/11 12:30:06;;;;;;;8.23;7.55;;;;;;;;;;6092432;23;20026;-77
2023/04/11 12:32:33;;;;;;;8.35;7.00;;;;;;;;;;6092091;23;20337;-77
2023/04/11 12:34:59;;;;;;;13.27;7.13;;;;;;;;;;6092538;23;20069;-78
2023/04/11 12:37:25;;;;;;;7.68;6.97;;;;;;;;;;6092490;23;20010;-78
2023/04/11 12:39:51;;;;;;;11.80;7.90;;;;;;;;;;6092891;23;20018;-76
2023/04/11 12:42:17;;;;;;;11.65;7.72;;;;;;;;;;6019710;23;20049;-76
2023/04/11 12:44:43;;;;;;;8.30;7.30;;;;;;;;;;6092713;23;20015;-77
2023/04/11 12:47:09;;;;;;;19.23;7.22;;;;;;;;;;6092706;23;20479;-77
2023/04/11 12:49:35;;;;;;;7.35;6.65;;;;;;;;;;6066477;23;20018;-77
2023/04/11 12:52:01;;;;;;;8.73;7.57;;;;;;;;;;6066006;23;20025;-77
2023/04/11 12:54:27;;;;;;;10.65;7.20;;;;;;;;;;6091766;23;20026;-77
2023/04/11 12:56:53;;;;;;;8.57;7.57;;;;;;;;;;6092158;23;20069;-76
2023/04/11 12:59:20;;;;;;;11.05;7.53;;;;;;;;;;6093271;23;20435;-77
2023/04/11 13:01:45;;;;;;;7.60;6.90;;;;;;;;;;6066298;23;20018;-77
2023/04/11 13:04:12;;;;;;;10.07;6.95;;;;;;;;;;6089461;23;20523;-77
2023/04/11 13:06:38;;;;;;;10.57;8.57;;;;;;;;;;6093787;23;20041;-76
2023/04/11 13:09:04;;;;;;;14.10;7.97;;;;;;;;;;6068738;23;20010;-76
2023/04/11 13:11:31;;;;;;;11.00;8.13;;;;;;;;;;6093821;23;20117;-75
2023/04/11 13:13:57;;;;;;;16.27;8.13;;;;;;;;;;6044926;23;20113;-75
2023/04/11 13:16:23;;;;;;;8.75;7.95;;;;;;;;;;6068252;23;20456;-75
2023/04/11 13:18:49;;;;;;;12.70;7.90;;;;;;;;;;6068132;23;20106;-75
2023/04/11 13:21:15;;;;;;;9.25;8.55;;;;;;;;;;6068429;23;20599;-75
2023/04/11 13:23:41;;;;;;;12.32;9.13;;;;;;;;;;6093546;23;20050;-76
2023/04/11 13:26:08;;;;;;;13.60;8.77;;;;;;;;;;6068226;23;20025;-75
2023/04/11 13:28:33;;;;;;;14.15;8.90;;;;;;;;;;6044444;23;20014;-75
2023/04/11 13:31:00;;;;;;;9.43;8.45;;;;;;;;;;6093539;23;20032;-75
2023/04/11 13:33:26;;;;;;;11.20;8.23;;;;;;;;;;6093082;23;20014;-76
2023/04/11 13:35:52;;;;;;;9.40;7.85;;;;;;;;;;6067863;23;20024;-76
2023/04/11 13:38:18;;;;;;;9.88;8.13;;;;;;;;;;6091378;23;20089;-75
2023/04/11 13:40:44;;;;;;;9.63;7.47;;;;;;;;;;6093147;23;20049;-75
2023/04/11 13:43:09;;;;;;;8.70;7.90;;;;;;;;;;6092536;23;20466;-75
2023/04/11 13:45:35;;;;;;;10.35;8.95;;;;;;;;;;6093104;23;20025;-75
2023/04/11 13:48:02;;;;;;;11.95;8.52;;;;;;;;;;6093702;23;20062;-75
2023/04/11 13:50:28;;;;;;;9.00;8.15;;;;;;;;;;6093752;23;20072;-75
2023/04/11 13:52:54;;;;;;;9.35;8.50;;;;;;;;;;6093104;23;20046;-76
2023/04/11 13:55:22;;;;;;;15.57;8.95;;;;;;;;;;6068186;23;20025;-74
2023/04/11 13:57:48;;;;;;;11.63;8.63;;;;;;;;;;6067933;23;20073;-75
2023/04/11 14:00:14;;;;;;;12.27;8.70;;;;;;;;;;6093698;23;20014;-75
2023/04/11 14:02:41;;;;;;;8.52;7.82;;;;;;;;;;6067656;23;20018;-75
2023/04/11 14:05:09;;;;;;;10.45;8.73;;;;;;;;;;6093540;23;20053;-76
2023/04/11 14:07:34;;;;;;;9.45;8.55;;;;;;;;;;6092557;23;20093;-76
2023/04/11 14:10:01;;;;;;;9.55;8.65;;;;;;;;;;6067624;23;20026;-76
2023/04/11 14:12:29;;;;;;;11.25;8.07;;;;;;;;;;6068683;23;20014;-75
2023/04/11 14:14:55;;;;;;;14.18;8.82;;;;;;;;;;6067942;23;20021;-75
2023/04/11 14:17:21;;;;;;;10.15;8.65;;;;;;;;;;6091986;23;20018;-76
2023/04/11 14:19:46;;;;;;;15.52;8.45;;;;;;;;;;6093285;23;20045;-75
2023/04/11 14:22:12;;;;;;;10.05;7.72;;;;;;;;;;6093174;23;20026;-75
2023/04/11 14:24:38;;;;;;;8.82;8.02;;;;;;;;;;6093553;23;20022;-76
2023/04/11 14:27:05;;;;;;;9.38;8.20;;;;;;;;;;6093521;23;20038;-75